Wetterdaten: Woche 25.07.22 - 31.07.22 (KW30)
Datum Zeit Temp. Aussen Temp. o. S. Temp +5cm Feuchte Auss Luftdruck Regen Sonnenschein Regendauer Solar Windben Empfang
25.07.2022 00:00 22,8 C 21,0 C 17,4 C 80 % 1012,3 hPa 0,0 l/m 0,00 h 0,00 h 0 W/m 0,1 km/h (0 Bft) 97,96 %
25.07.2022 01:00 21,8 C 20,5 C 16,9 C 82 % 1011,9 hPa 0,0 l/m 0,00 h 0,00 h 0 W/m 1,0 km/h (0 Bft) 97,25 %
25.07.2022 02:00 21,8 C 21,1 C 17,8 C 78 % 1011,2 hPa 0,0 l/m 0,00 h 0,00 h 0 W/m 4,9 km/h (1 Bft) 96,86 %
25.07.2022 03:00 21,5 C 20,3 C 17,0 C 79 % 1010,9 hPa 0,0 l/m 0,00 h 0,00 h 0 W/m 1,8 km/h (1 Bft) 98,85 %
25.07.2022 04:00 20,7 C 19,5 C 16,5 C 82 % 1010,4 hPa 0,0 l/m 0,00 h 0,00 h 0 W/m 4,1 km/h (1 Bft) 96,67 %
25.07.2022 05:00 20,1 C 19,1 C 16,1 C 82 % 1009,8 hPa 0,0 l/m 0,00 h 0,00 h 8 W/m 8,5 km/h (2 Bft) 98,35 %
25.07.2022 06:00 20,1 C 19,3 C 16,1 C 81 % 1009,3 hPa 0,0 l/m 0,00 h 0,00 h 22 W/m 7,0 km/h (2 Bft) 97,97 %
25.07.2022 07:00 20,6 C 20,0 C 16,7 C 79 % 1008,9 hPa 0,0 l/m 0,00 h 0,00 h 54 W/m 7,4 km/h (2 Bft) 96,70 %
25.07.2022 08:00 22,6 C 23,3 C 18,6 C 74 % 1008,7 hPa 0,0 l/m 0,77 h 0,00 h 251 W/m 8,5 km/h (2 Bft) 98,81 %
25.07.2022 09:00 25,3 C 26,6 C 21,6 C 67 % 1008,7 hPa 0,0 l/m 0,60 h 0,00 h 287 W/m 8,1 km/h (2 Bft) 97,55 %
25.07.2022 10:00 25,5 C 25,2 C 21,5 C 64 % 1008,9 hPa 0,0 l/m 0,17 h 0,00 h 270 W/m 12,7 km/h (3 Bft) 97,93 %
25.07.2022 11:00 25,7 C 26,0 C 21,9 C 62 % 1009,2 hPa 0,0 l/m 0,43 h 0,00 h 389 W/m 12,5 km/h (3 Bft) 97,22 %
25.07.2022 12:00 26,2 C 27,0 C 25,1 C 59 % 1009,4 hPa 0,0 l/m 0,60 h 0,00 h 605 W/m 13,3 km/h (3 Bft) 98,17 %
25.07.2022 13:00 27,7 C 28,2 C 24,4 C 57 % 1009,5 hPa 0,0 l/m 0,77 h 0,00 h 637 W/m 15,2 km/h (3 Bft) 98,65 %
25.07.2022 14:00 27,6 C 28,1 C 23,9 C 60 % 1009,8 hPa 0,0 l/m 0,50 h 0,00 h 530 W/m 17,8 km/h (3 Bft) 95,94 %
25.07.2022 15:00 27,5 C 27,4 C 23,4 C 59 % 1009,9 hPa 0,0 l/m 0,30 h 0,00 h 349 W/m 16,2 km/h (3 Bft) 98,83 %
25.07.2022 16:00 26,3 C 26,0 C 22,1 C 63 % 1010,5 hPa 0,0 l/m 0,60 h 0,00 h 327 W/m 20,6 km/h (4 Bft) 98,64 %
25.07.2022 17:00 25,3 C 25,9 C 21,5 C 63 % 1010,9 hPa 0,0 l/m 0,40 h 0,00 h 326 W/m 19,3 km/h (3 Bft) 95,30 %
25.07.2022 18:00 25,4 C 26,0 C 21,2 C 59 % 1010,9 hPa 0,0 l/m 0,43 h 0,00 h 253 W/m 19,1 km/h (3 Bft) 99,09 %
25.07.2022 19:00 25,3 C 25,3 C 21,0 C 57 % 1011,1 hPa 0,0 l/m 0,53 h 0,00 h 181 W/m 17,7 km/h (3 Bft) 97,60 %
25.07.2022 20:00 24,2 C 23,3 C 19,8 C 56 % 1011,7 hPa 0,0 l/m 0,00 h 0,00 h 37 W/m 19,2 km/h (3 Bft) 96,76 %
25.07.2022 21:00 23,0 C 22,0 C 18,5 C 58 % 1012,1 hPa 0,0 l/m 0,00 h 0,00 h 9 W/m 11,5 km/h (2 Bft) 98,65 %
25.07.2022 22:00 22,1 C 21,1 C 17,7 C 62 % 1012,5 hPa 0,0 l/m 0,00 h 0,00 h 0 W/m 13,0 km/h (3 Bft) 97,08 %
25.07.2022 23:00 21,4 C 20,4 C 17,1 C 66 % 1012,9 hPa 0,0 l/m 0,00 h 0,00 h 0 W/m 11,4 km/h (2 Bft) 96,61 %
26.07.2022 00:00 20,3 C 19,1 C 16,2 C 71 % 1013,5 hPa 0,0 l/m 0,00 h 0,00 h 0 W/m 10,3 km/h (2 Bft) 98,74 %
26.07.2022 01:00 19,7 C 18,7 C 15,7 C 73 % 1013,8 hPa 0,0 l/m 0,00 h 0,00 h 0 W/m 6,4 km/h (2 Bft) 96,65 %
26.07.2022 02:00 18,9 C 17,9 C 14,8 C 77 % 1014,0 hPa 0,0 l/m 0,00 h 0,00 h 0 W/m 6,6 km/h (2 Bft) 97,65 %
26.07.2022 03:00 18,2 C 17,3 C 14,2 C 80 % 1014,0 hPa 0,0 l/m 0,00 h 0,00 h 0 W/m 7,6 km/h (2 Bft) 97,84 %
26.07.2022 04:00 18,2 C 17,3 C 14,1 C 81 % 1014,1 hPa 0,0 l/m 0,00 h 0,00 h 0 W/m 8,6 km/h (2 Bft) 97,93 %
26.07.2022 05:00 17,9 C 17,2 C 13,9 C 83 % 1014,4 hPa 0,0 l/m 0,00 h 0,00 h 0 W/m 11,5 km/h (2 Bft) 96,65 %
26.07.2022 06:00 17,8 C 17,0 C 13,9 C 85 % 1014,8 hPa 0,0 l/m 0,00 h 0,00 h 15 W/m 10,8 km/h (2 Bft) 99,04 %
26.07.2022 07:00 17,9 C 17,2 C 14,1 C 86 % 1015,0 hPa 0,0 l/m 0,00 h 0,00 h 46 W/m 9,3 km/h (2 Bft) 97,19 %
26.07.2022 08:00 18,3 C 18,0 C 14,7 C 86 % 1015,3 hPa 0,0 l/m 0,07 h 0,00 h 122 W/m 10,2 km/h (2 Bft) 97,71 %
26.07.2022 09:00 19,4 C 20,5 C 16,4 C 84 % 1015,7 hPa 0,0 l/m 0,27 h 0,00 h 271 W/m 12,9 km/h (3 Bft) 97,17 %
26.07.2022 10:00 21,4 C 22,4 C 18,3 C 77 % 1015,9 hPa 0,0 l/m 0,77 h 0,00 h 450 W/m 12,3 km/h (3 Bft) 99,22 %
26.07.2022 11:00 22,0 C 22,6 C 18,5 C 72 % 1016,1 hPa 0,0 l/m 0,33 h 0,03 h 415 W/m 15,2 km/h (3 Bft) 97,08 %
26.07.2022 12:00 22,3 C 22,7 C 20,2 C 72 % 1016,4 hPa 0,0 l/m 0,50 h 0,00 h 438 W/m 21,5 km/h (4 Bft) 96,98 %
26.07.2022 13:00 20,9 C 21,2 C 17,5 C 77 % 1016,9 hPa 0,0 l/m 0,07 h 0,00 h 266 W/m 14,3 km/h (3 Bft) 98,29 %
26.07.2022 14:00 22,2 C 23,6 C 18,6 C 72 % 1016,9 hPa 0,0 l/m 0,50 h 0,00 h 548 W/m 16,0 km/h (3 Bft) 98,50 %
26.07.2022 15:00 22,6 C 23,1 C 18,7 C 70 % 1016,9 hPa 0,0 l/m 0,33 h 0,00 h 349 W/m 20,1 km/h (4 Bft) 95,87 %
26.07.2022 16:00 21,8 C 24,4 C 18,3 C 72 % 1017,5 hPa 0,0 l/m 1,00 h 0,00 h 639 W/m 20,4 km/h (4 Bft) 99,14 %
26.07.2022 17:00 21,6 C 22,8 C 18,1 C 70 % 1017,6 hPa 0,0 l/m 0,47 h 0,00 h 327 W/m 16,5 km/h (3 Bft) 96,66 %
26.07.2022 18:00 20,7 C 20,9 C 17,0 C 73 % 1017,7 hPa 0,0 l/m 0,43 h 0,00 h 205 W/m 17,5 km/h (3 Bft) 98,16 %
26.07.2022 19:00 19,7 C 19,2 C 15,8 C 77 % 1017,9 hPa 0,0 l/m 0,00 h 0,00 h 92 W/m 14,5 km/h (3 Bft) 96,65 %
26.07.2022 20:00 18,8 C 18,3 C 14,9 C 79 % 1018,0 hPa 0,0 l/m 0,00 h 0,00 h 33 W/m 11,3 km/h (2 Bft) 98,86 %
26.07.2022 21:00 18,5 C 17,8 C 14,1 C 79 % 1018,3 hPa 0,0 l/m 0,00 h 0,00 h 8 W/m 8,6 km/h (2 Bft) 97,37 %
26.07.2022 22:00 17,9 C 16,9 C 13,6 C 79 % 1018,9 hPa 0,0 l/m 0,00 h 0,00 h 0 W/m 10,0 km/h (2 Bft) 97,65 %
26.07.2022 23:00 17,2 C 16,7 C 13,1 C 71 % 1019,4 hPa 0,0 l/m 0,00 h 0,00 h 0 W/m 8,1 km/h (2 Bft) 97,94 %
27.07.2022 00:00 16,8 C 16,0 C 12,6 C 72 % 1019,7 hPa 0,0 l/m 0,00 h 0,00 h 0 W/m 6,2 km/h (2 Bft) 94,08 %
27.07.2022 01:00 16,3 C 15,6 C 12,1 C 75 % 1019,7 hPa 0,0 l/m 0,00 h 0,00 h 0 W/m 6,5 km/h (2 Bft) 97,44 %
27.07.2022 02:00 15,7 C 14,9 C 11,7 C 78 % 1019,7 hPa 0,0 l/m 0,00 h 0,00 h 0 W/m 5,3 km/h (1 Bft) 96,35 %
27.07.2022 03:00 15,0 C 13,9 C 10,7 C 82 % 1019,7 hPa 0,0 l/m 0,00 h 0,00 h 0 W/m 3,4 km/h (1 Bft) 97,63 %
27.07.2022 04:00 14,0 C 12,6 C 9,6 C 85 % 1019,6 hPa 0,0 l/m 0,00 h 0,00 h 0 W/m 0,3 km/h (0 Bft) 98,64 %
27.07.2022 05:00 12,9 C 11,8 C 8,9 C 87 % 1019,7 hPa 0,0 l/m 0,00 h 0,00 h 3 W/m 1,0 km/h (0 Bft) 94,39 %
27.07.2022 06:00 12,5 C 11,9 C 8,9 C 90 % 1020,0 hPa 0,0 l/m 0,00 h 0,00 h 24 W/m 1,7 km/h (1 Bft) 97,72 %
27.07.2022 07:00 12,9 C 12,6 C 9,5 C 91 % 1020,3 hPa 0,0 l/m 0,00 h 0,00 h 29 W/m 5,0 km/h (1 Bft) 98,43 %
27.07.2022 08:00 14,7 C 17,1 C 11,2 C 86 % 1020,5 hPa 0,0 l/m 0,90 h 0,00 h 323 W/m 7,0 km/h (2 Bft) 94,95 %
27.07.2022 09:00 17,7 C 22,3 C 15,0 C 72 % 1020,7 hPa 0,0 l/m 0,87 h 0,00 h 497 W/m 10,4 km/h (2 Bft) 96,51 %
27.07.2022 10:00 17,7 C 18,8 C 14,0 C 69 % 1020,8 hPa 0,0 l/m 0,33 h 0,00 h 335 W/m 9,2 km/h (2 Bft) 99,21 %
27.07.2022 11:00 18,2 C 19,6 C 14,9 C 67 % 1020,9 hPa 0,0 l/m 0,43 h 0,00 h 468 W/m 13,4 km/h (3 Bft) 97,22 %
27.07.2022 12:00 19,8 C 21,9 C 19,9 C 60 % 1020,8 hPa 0,0 l/m 0,60 h 0,00 h 657 W/m 13,8 km/h (3 Bft) 98,76 %
27.07.2022 13:00 20,0 C 20,4 C 16,7 C 59 % 1020,6 hPa 0,0 l/m 0,30 h 0,00 h 344 W/m 13,9 km/h (3 Bft) 95,09 %
27.07.2022 14:00 21,6 C 24,3 C 17,7 C 53 % 1020,2 hPa 0,0 l/m 0,70 h 0,00 h 728 W/m 13,6 km/h (3 Bft) 99,07 %
27.07.2022 15:00 21,1 C 22,0 C 17,4 C 51 % 1020,1 hPa 0,0 l/m 0,20 h 0,00 h 340 W/m 12,8 km/h (3 Bft) 98,29 %
27.07.2022 16:00 22,0 C 25,8 C 17,9 C 50 % 1019,7 hPa 0,0 l/m 0,70 h 0,00 h 631 W/m 11,3 km/h (2 Bft) 95,61 %
27.07.2022 17:00 23,5 C 29,2 C 20,0 C 47 % 1019,3 hPa 0,0 l/m 0,90 h 0,00 h 667 W/m 13,4 km/h (3 Bft) 98,33 %
27.07.2022 18:00 22,2 C 24,7 C 18,3 C 49 % 1019,0 hPa 0,0 l/m 0,50 h 0,00 h 292 W/m 10,8 km/h (2 Bft) 97,64 %
27.07.2022 19:00 22,5 C 23,8 C 17,9 C 48 % 1018,9 hPa 0,0 l/m 0,67 h 0,00 h 210 W/m 10,1 km/h (2 Bft) 96,94 %
27.07.2022 20:00 21,0 C 20,1 C 16,5 C 51 % 1018,9 hPa 0,0 l/m 0,17 h 0,00 h 41 W/m 7,1 km/h (2 Bft) 98,00 %
27.07.2022 21:00 19,8 C 18,7 C 15,2 C 56 % 1019,1 hPa 0,0 l/m 0,23 h 0,00 h 19 W/m 7,1 km/h (2 Bft) 96,79 %
27.07.2022 22:00 18,2 C 17,1 C 13,7 C 64 % 1019,5 hPa 0,0 l/m 0,00 h 0,00 h 0 W/m 5,4 km/h (1 Bft) 97,51 %
27.07.2022 23:00 17,2 C 16,3 C 12,9 C 67 % 1019,6 hPa 0,0 l/m 0,00 h 0,00 h 0 W/m 6,1 km/h (2 Bft) 98,57 %
28.07.2022 00:00 16,6 C 15,7 C 12,3 C 68 % 1019,7 hPa 0,0 l/m 0,00 h 0,00 h 0 W/m 10,5 km/h (2 Bft) 96,40 %
28.07.2022 01:00 16,0 C 15,2 C 11,8 C 69 % 1019,8 hPa 0,0 l/m 0,00 h 0,00 h 0 W/m 11,3 km/h (2 Bft) 97,22 %
28.07.2022 02:00 15,3 C 14,5 C 11,1 C 72 % 1019,7 hPa 0,0 l/m 0,00 h 0,00 h 0 W/m 6,9 km/h (2 Bft) 99,58 %
28.07.2022 03:00 14,5 C 13,6 C 10,2 C 75 % 1019,5 hPa 0,0 l/m 0,00 h 0,00 h 0 W/m 5,4 km/h (1 Bft) 95,31 %
28.07.2022 04:00 13,8 C 12,9 C 9,7 C 78 % 1019,0 hPa 0,0 l/m 0,00 h 0,00 h 0 W/m 5,9 km/h (2 Bft) 97,19 %
28.07.2022 05:00 13,2 C 12,3 C 9,0 C 80 % 1018,9 hPa 0,0 l/m 0,00 h 0,00 h 0 W/m 5,8 km/h (2 Bft) 97,79 %
28.07.2022 06:00 12,6 C 12,1 C 8,9 C 84 % 1018,9 hPa 0,0 l/m 0,00 h 0,00 h 21 W/m 3,5 km/h (1 Bft) 97,24 %
28.07.2022 07:00 13,4 C 13,3 C 9,7 C 84 % 1019,0 hPa 0,0 l/m 0,00 h 0,00 h 60 W/m 8,1 km/h (2 Bft) 98,22 %
28.07.2022 08:00 15,1 C 15,8 C 11,5 C 79 % 1018,9 hPa 0,0 l/m 0,57 h 0,00 h 199 W/m 11,6 km/h (2 Bft) 96,30 %
28.07.2022 09:00 17,4 C 20,4 C 14,2 C 72 % 1018,8 hPa 0,0 l/m 0,67 h 0,00 h 396 W/m 11,6 km/h (2 Bft) 98,43 %
28.07.2022 10:00 20,0 C 22,3 C 16,1 C 65 % 1018,5 hPa 0,0 l/m 1,00 h 0,00 h 700 W/m 14,3 km/h (3 Bft) 97,65 %
28.07.2022 11:00 21,3 C 23,4 C 17,2 C 59 % 1018,3 hPa 0,0 l/m 1,00 h 0,00 h 760 W/m 14,8 km/h (3 Bft) 99,22 %
28.07.2022 12:00 22,9 C 25,2 C 21,7 C 54 % 1017,8 hPa 0,0 l/m 1,00 h 0,00 h 835 W/m 15,8 km/h (3 Bft) 94,59 %
28.07.2022 13:00 23,9 C 25,6 C 19,8 C 51 % 1017,4 hPa 0,0 l/m 1,00 h 0,00 h 794 W/m 14,3 km/h (3 Bft) 99,45 %
28.07.2022 14:00 24,8 C 27,0 C 20,4 C 50 % 1017,0 hPa 0,0 l/m 0,93 h 0,00 h 693 W/m 11,1 km/h (2 Bft) 97,20 %
28.07.2022 15:00 25,6 C 28,0 C 20,9 C 49 % 1016,5 hPa 0,0 l/m 0,73 h 0,00 h 654 W/m 11,7 km/h (2 Bft) 97,46 %
28.07.2022 16:00 25,9 C 28,0 C 21,2 C 48 % 1016,2 hPa 0,0 l/m 0,93 h 0,00 h 467 W/m 11,1 km/h (2 Bft) 98,09 %
28.07.2022 17:00 24,9 C 24,8 C 20,3 C 50 % 1016,0 hPa 0,0 l/m 0,03 h 0,07 h 188 W/m 10,3 km/h (2 Bft) 98,08 %
28.07.2022 18:00 24,6 C 25,0 C 20,3 C 51 % 1015,7 hPa 0,0 l/m 0,50 h 0,00 h 213 W/m 12,2 km/h (2 Bft) 97,31 %
28.07.2022 19:00 24,0 C 23,5 C 19,4 C 53 % 1015,7 hPa 0,0 l/m 0,07 h 0,00 h 102 W/m 11,6 km/h (2 Bft) 97,37 %
28.07.2022 20:00 22,9 C 22,1 C 18,3 C 55 % 1015,6 hPa 0,0 l/m 0,00 h 0,00 h 35 W/m 11,3 km/h (2 Bft) 97,44 %
28.07.2022 21:00 22,1 C 21,2 C 17,5 C 57 % 1015,9 hPa 0,0 l/m 0,00 h 0,00 h 11 W/m 8,2 km/h (2 Bft) 98,50 %
28.07.2022 22:00 21,5 C 20,6 C 17,0 C 58 % 1016,4 hPa 0,0 l/m 0,00 h 0,00 h 0 W/m 10,1 km/h (2 Bft) 95,52 %
28.07.2022 23:00 21,0 C 19,9 C 16,5 C 59 % 1016,4 hPa 0,0 l/m 0,00 h 0,00 h 0 W/m 9,8 km/h (2 Bft) 99,79 %
29.07.2022 00:00 20,3 C 19,2 C 15,8 C 60 % 1016,4 hPa 0,0 l/m 0,00 h 0,00 h 0 W/m 9,3 km/h (2 Bft) 97,34 %
29.07.2022 01:00 19,6 C 18,5 C 15,1 C 62 % 1016,2 hPa 0,0 l/m 0,00 h 0,00 h 0 W/m 6,8 km/h (2 Bft) 97,15 %
29.07.2022 02:00 19,0 C 18,0 C 14,5 C 65 % 1015,6 hPa 0,0 l/m 0,00 h 0,00 h 0 W/m 6,2 km/h (2 Bft) 98,36 %
29.07.2022 03:00 18,8 C 17,8 C 14,4 C 65 % 1015,3 hPa 0,0 l/m 0,00 h 0,00 h 0 W/m 5,7 km/h (1 Bft) 97,87 %
29.07.2022 04:00 18,3 C 17,2 C 13,8 C 67 % 1015,6 hPa 0,0 l/m 0,00 h 0,00 h 0 W/m 15,3 km/h (3 Bft) 96,28 %
29.07.2022 05:00 17,3 C 15,2 C 11,7 C 76 % 1016,0 hPa 2,0 l/m 0,00 h 0,67 h 0 W/m 8,7 km/h (2 Bft) 99,57 %
29.07.2022 06:00 15,5 C 14,0 C 10,1 C 89 % 1015,4 hPa 0,4 l/m 0,00 h 0,60 h 5 W/m 7,2 km/h (2 Bft) 96,10 %
29.07.2022 07:00 15,2 C 14,2 C 10,4 C 91 % 1015,5 hPa 0,0 l/m 0,00 h 0,20 h 28 W/m 5,0 km/h (1 Bft) 97,77 %
29.07.2022 08:00 15,5 C 14,9 C 11,0 C 93 % 1016,2 hPa 0,0 l/m 0,00 h 0,10 h 29 W/m 3,9 km/h (1 Bft) 98,30 %
29.07.2022 09:00 16,0 C 15,1 C 11,2 C 94 % 1016,4 hPa 0,4 l/m 0,00 h 0,67 h 53 W/m 1,7 km/h (1 Bft) 97,51 %
29.07.2022 10:00 16,5 C 16,6 C 12,2 C 93 % 1016,4 hPa 0,0 l/m 0,00 h 0,00 h 139 W/m 5,2 km/h (1 Bft) 97,79 %
29.07.2022 11:00 17,4 C 17,9 C 14,0 C 89 % 1016,5 hPa 0,0 l/m 0,17 h 0,00 h 223 W/m 5,0 km/h (1 Bft) 96,81 %
29.07.2022 12:00 19,8 C 21,7 C 19,1 C 82 % 1016,8 hPa 0,0 l/m 0,60 h 0,00 h 591 W/m 9,0 km/h (2 Bft) 98,75 %
29.07.2022 13:00 20,6 C 20,9 C 17,1 C 74 % 1016,8 hPa 0,0 l/m 0,00 h 0,00 h 291 W/m 9,3 km/h (2 Bft) 97,36 %
29.07.2022 14:00 21,6 C 23,2 C 17,9 C 72 % 1016,8 hPa 0,0 l/m 0,60 h 0,00 h 631 W/m 13,9 km/h (3 Bft) 99,00 %
29.07.2022 15:00 23,5 C 26,5 C 18,8 C 65 % 1016,7 hPa 0,0 l/m 1,00 h 0,00 h 813 W/m 15,5 km/h (3 Bft) 95,09 %
29.07.2022 16:00 24,7 C 29,3 C 20,1 C 58 % 1016,5 hPa 0,0 l/m 1,00 h 0,00 h 704 W/m 15,9 km/h (3 Bft) 99,57 %
29.07.2022 17:00 25,6 C 29,9 C 21,2 C 58 % 1016,4 hPa 0,0 l/m 1,00 h 0,00 h 489 W/m 13,2 km/h (3 Bft) 97,70 %
29.07.2022 18:00 25,4 C 27,8 C 21,1 C 59 % 1016,2 hPa 0,0 l/m 0,87 h 0,00 h 316 W/m 12,3 km/h (3 Bft) 96,63 %
29.07.2022 19:00 25,2 C 25,7 C 19,9 C 59 % 1016,3 hPa 0,0 l/m 0,37 h 0,00 h 136 W/m 11,2 km/h (2 Bft) 98,43 %
29.07.2022 20:00 24,0 C 23,1 C 18,8 C 63 % 1016,6 hPa 0,0 l/m 0,30 h 0,00 h 53 W/m 5,7 km/h (1 Bft) 97,73 %
29.07.2022 21:00 23,1 C 21,6 C 17,6 C 66 % 1016,9 hPa 0,0 l/m 0,13 h 0,00 h 12 W/m 1,3 km/h (1 Bft) 96,86 %
29.07.2022 22:00 21,8 C 20,2 C 16,4 C 70 % 1017,4 hPa 0,0 l/m 0,00 h 0,00 h 0 W/m 1,7 km/h (1 Bft) 99,22 %
29.07.2022 23:00 20,8 C 19,5 C 16,0 C 74 % 1017,8 hPa 0,0 l/m 0,00 h 0,00 h 0 W/m 1,5 km/h (1 Bft) 96,58 %
30.07.2022 00:00 19,9 C 18,0 C 14,6 C 78 % 1017,8 hPa 0,0 l/m 0,00 h 0,00 h 0 W/m 1,1 km/h (1 Bft) 98,21 %
30.07.2022 01:00 18,3 C 16,8 C 13,4 C 83 % 1017,5 hPa 0,0 l/m 0,00 h 0,00 h 0 W/m 0,2 km/h (0 Bft) 98,32 %
30.07.2022 02:00 17,4 C 16,1 C 12,8 C 85 % 1017,4 hPa 0,0 l/m 0,00 h 0,00 h 0 W/m 2,5 km/h (1 Bft) 95,66 %
30.07.2022 03:00 16,7 C 15,8 C 12,4 C 85 % 1017,5 hPa 0,0 l/m 0,00 h 0,00 h 0 W/m 4,9 km/h (1 Bft) 98,67 %
30.07.2022 04:00 16,2 C 15,2 C 11,9 C 86 % 1017,6 hPa 0,0 l/m 0,00 h 0,00 h 0 W/m 4,0 km/h (1 Bft) 98,47 %
30.07.2022 05:00 15,6 C 14,4 C 11,2 C 89 % 1017,7 hPa 0,0 l/m 0,00 h 0,00 h 0 W/m 1,8 km/h (1 Bft) 94,92 %
30.07.2022 06:00 15,6 C 14,7 C 11,5 C 92 % 1018,3 hPa 0,0 l/m 0,00 h 0,00 h 13 W/m 3,8 km/h (1 Bft) 98,05 %
30.07.2022 07:00 15,8 C 15,3 C 12,1 C 95 % 1018,8 hPa 0,0 l/m 0,00 h 0,00 h 54 W/m 7,2 km/h (2 Bft) 98,44 %
30.07.2022 08:00 16,2 C 16,8 C 13,0 C 94 % 1019,1 hPa 0,0 l/m 0,17 h 0,00 h 165 W/m 8,6 km/h (2 Bft) 96,36 %
30.07.2022 09:00 18,4 C 22,4 C 16,4 C 87 % 1019,4 hPa 0,0 l/m 0,93 h 0,00 h 427 W/m 8,9 km/h (2 Bft) 99,65 %
30.07.2022 10:00 20,3 C 22,2 C 16,6 C 77 % 1019,4 hPa 0,0 l/m 1,00 h 0,00 h 639 W/m 10,6 km/h (2 Bft) 97,94 %
30.07.2022 11:00 21,6 C 23,4 C 17,6 C 68 % 1019,5 hPa 0,0 l/m 1,00 h 0,00 h 776 W/m 12,6 km/h (3 Bft) 96,96 %
30.07.2022 12:00 23,2 C 25,4 C 24,3 C 63 % 1019,4 hPa 0,0 l/m 1,00 h 0,00 h 848 W/m 12,1 km/h (2 Bft) 97,24 %
30.07.2022 13:00 25,0 C 26,5 C 20,4 C 55 % 1019,3 hPa 0,0 l/m 1,00 h 0,00 h 877 W/m 13,2 km/h (3 Bft) 98,12 %
30.07.2022 14:00 25,9 C 28,1 C 21,1 C 54 % 1019,1 hPa 0,0 l/m 1,00 h 0,00 h 871 W/m 14,9 km/h (3 Bft) 97,90 %
30.07.2022 15:00 26,4 C 28,2 C 21,4 C 52 % 1019,0 hPa 0,0 l/m 0,97 h 0,00 h 660 W/m 14,3 km/h (3 Bft) 97,79 %
30.07.2022 16:00 26,6 C 29,7 C 21,6 C 52 % 1018,7 hPa 0,0 l/m 1,00 h 0,00 h 640 W/m 14,6 km/h (3 Bft) 97,04 %
30.07.2022 17:00 27,0 C 30,0 C 22,3 C 52 % 1018,5 hPa 0,0 l/m 1,00 h 0,00 h 515 W/m 13,3 km/h (3 Bft) 99,15 %
30.07.2022 18:00 26,7 C 28,6 C 22,3 C 53 % 1018,4 hPa 0,0 l/m 0,63 h 0,00 h 317 W/m 12,7 km/h (3 Bft) 95,49 %
30.07.2022 19:00 26,3 C 26,6 C 21,3 C 55 % 1018,3 hPa 0,0 l/m 0,67 h 0,00 h 192 W/m 11,0 km/h (2 Bft) 99,13 %
30.07.2022 20:00 24,6 C 23,3 C 19,5 C 60 % 1018,5 hPa 0,0 l/m 0,00 h 0,00 h 25 W/m 4,3 km/h (1 Bft) 98,56 %
30.07.2022 21:00 23,7 C 22,3 C 18,5 C 65 % 1018,7 hPa 0,0 l/m 0,00 h 0,00 h 5 W/m 1,8 km/h (1 Bft) 96,14 %
30.07.2022 22:00 22,9 C 21,4 C 17,9 C 69 % 1018,8 hPa 0,0 l/m 0,00 h 0,00 h 0 W/m 0,3 km/h (0 Bft) 98,44 %
30.07.2022 23:00 22,2 C 20,7 C 17,2 C 72 % 1018,7 hPa 0,0 l/m 0,00 h 0,00 h 0 W/m 0,2 km/h (0 Bft) 99,00 %
31.07.2022 00:00 21,6 C 20,5 C 17,0 C 73 % 1018,5 hPa 0,0 l/m 0,00 h 0,00 h 0 W/m 0,0 km/h (0 Bft) 96,35 %
31.07.2022 01:00 21,1 C 19,7 C 16,2 C 76 % 1018,3 hPa 0,0 l/m 0,00 h 0,00 h 0 W/m 0,1 km/h (0 Bft) 99,12 %
31.07.2022 02:00 20,5 C 19,4 C 16,1 C 75 % 1017,9 hPa 0,0 l/m 0,00 h 0,00 h 0 W/m 2,7 km/h (1 Bft) 97,14 %
31.07.2022 03:00 20,1 C 18,9 C 15,9 C 75 % 1017,5 hPa 0,0 l/m 0,00 h 0,00 h 0 W/m 2,0 km/h (1 Bft) 96,66 %
31.07.2022 04:00 19,6 C 18,9 C 15,6 C 76 % 1017,3 hPa 0,0 l/m 0,00 h 0,00 h 0 W/m 3,0 km/h (1 Bft) 99,29 %
31.07.2022 05:00 19,6 C 18,9 C 15,6 C 76 % 1017,2 hPa 0,0 l/m 0,00 h 0,03 h 6 W/m 9,7 km/h (2 Bft) 96,22 %
31.07.2022 06:00 19,6 C 18,9 C 15,6 C 77 % 1017,3 hPa 0,0 l/m 0,00 h 0,00 h 21 W/m 6,3 km/h (2 Bft) 98,18 %
31.07.2022 07:00 19,7 C 19,1 C 15,8 C 77 % 1017,4 hPa 0,0 l/m 0,00 h 0,00 h 64 W/m 5,9 km/h (2 Bft) 98,37 %
31.07.2022 08:00 20,2 C 19,6 C 16,0 C 77 % 1017,4 hPa 0,0 l/m 0,00 h 0,20 h 101 W/m 10,8 km/h (2 Bft) 96,79 %
31.07.2022 09:00 20,0 C 19,6 C 15,8 C 84 % 1017,4 hPa 0,0 l/m 0,00 h 0,13 h 157 W/m 11,0 km/h (2 Bft) 97,57 %
31.07.2022 10:00 20,6 C 20,8 C 17,2 C 82 % 1017,2 hPa 0,0 l/m 0,20 h 0,00 h 269 W/m 14,7 km/h (3 Bft) 99,14 %
31.07.2022 11:00 22,1 C 22,2 C 18,4 C 78 % 1017,0 hPa 0,0 l/m 0,17 h 0,00 h 269 W/m 14,6 km/h (3 Bft) 96,79 %
31.07.2022 12:00 23,2 C 23,5 C 19,6 C 75 % 1016,6 hPa 0,0 l/m 0,03 h 0,00 h 335 W/m 15,2 km/h (3 Bft) 97,90 %
31.07.2022 13:00 24,4 C 24,5 C 20,5 C 71 % 1016,4 hPa 0,0 l/m 0,20 h 0,07 h 365 W/m 13,1 km/h (3 Bft) 97,30 %
31.07.2022 14:00 25,5 C 25,6 C 21,5 C 68 % 1016,0 hPa 0,0 l/m 0,27 h 0,00 h 340 W/m 13,8 km/h (3 Bft) 99,29 %
31.07.2022 15:00 26,1 C 26,1 C 21,7 C 66 % 1015,5 hPa 0,0 l/m 0,27 h 0,03 h 341 W/m 16,2 km/h (3 Bft) 96,55 %
31.07.2022 16:00 26,5 C 26,9 C 22,1 C 65 % 1015,2 hPa 0,0 l/m 0,23 h 0,00 h 326 W/m 16,2 km/h (3 Bft) 97,44 %
31.07.2022 17:00 26,3 C 26,4 C 21,8 C 65 % 1014,9 hPa 0,0 l/m 0,30 h 0,00 h 241 W/m 17,4 km/h (3 Bft) 99,03 %
31.07.2022 18:00 26,1 C 25,6 C 21,5 C 66 % 1014,5 hPa 0,0 l/m 0,07 h 0,00 h 149 W/m 19,4 km/h (3 Bft) 96,67 %
31.07.2022 19:00 25,3 C 24,4 C 20,7 C 70 % 1014,5 hPa 0,0 l/m 0,27 h 0,00 h 123 W/m 17,1 km/h (3 Bft) 97,65 %
31.07.2022 20:00 23,0 C 21,2 C 17,7 C 83 % 1015,1 hPa 5,6 l/m 0,00 h 0,37 h 10 W/m 13,5 km/h (3 Bft) 99,25 %
31.07.2022 21:00 21,0 C 19,4 C 16,1 C 94 % 1015,5 hPa 0,0 l/m 0,00 h 0,00 h 8 W/m 6,5 km/h (2 Bft) 95,93 %
31.07.2022 22:00 20,2 C 19,1 C 15,1 C 95 % 1016,0 hPa 0,0 l/m 0,00 h 0,03 h 0 W/m 13,0 km/h (3 Bft) 98,57 %
31.07.2022 23:00 19,9 C 18,9 C 15,0 C 95 % 1016,1 hPa 0,0 l/m 0,00 h 0,00 h 0 W/m 4,9 km/h (1 Bft) 97,97 %
Min-Datum _ 27.07.22 27.07.22 27.07.22 27.07.22 25.07.22 - - - - 25.07.22 27.07.22
_ Min-Zeit 06:22 05:12 05:42 17:56 08:16 - - - - 00:00 00:02
Minimum _ 12,3 C 11,7 C 8,3 C 45 % 1008,6 hPa - - - - 0,0 km/h (0 Bft) 11,76 %
Max-Datum _ 25.07.22 30.07.22 25.07.22 31.07.22 27.07.22 31.07.22 25.07.22 29.07.22 26.07.22 26.07.22 25.07.22
_ Max-Zeit 14:56 17:08 12:40 23:56 11:18 20:34 09:16 06:08 14:14 12:36 00:00
Maximum _ 28,2 C 32,8 C 29,4 C 96 % 1021,0 hPa 5,6 l/m 0,07 h 0,07 h 1136 W/m 38,6 km/h
NW (5 Bft)
100,00 %
Durchschnitt _ 20,7 C 20,8 C 16,6 C 71 % 1016,5 hPa #8,4 l/m #45:10 h #3:12 h 306 W/m 9,7 km/h (2 Bft) 97,60 %
© 2022 W. Hausmann